createdAt,value
2023-04-23T00:01:58.380Z,100328.25
2023-04-23T00:04:26.543Z,100322.94
2023-04-23T00:06:53.640Z,100334.00
2023-04-23T00:09:23.097Z,100329.53
2023-04-23T00:11:50.449Z,100327.47
2023-04-23T00:14:17.216Z,100325.25
2023-04-23T00:16:44.164Z,100322.94
2023-04-23T00:19:10.921Z,100319.34
2023-04-23T00:21:37.675Z,100307.63
2023-04-23T00:24:04.799Z,100315.38
2023-04-23T00:26:31.440Z,100314.63
2023-04-23T00:28:58.164Z,100312.16
2023-04-23T00:31:27.150Z,100309.06
2023-04-23T00:33:54.448Z,100311.31
2023-04-23T00:36:21.176Z,100306.63
2023-04-23T00:38:48.156Z,100308.72
2023-04-23T00:41:15.383Z,100297.97
2023-04-23T00:43:42.285Z,100309.22
2023-04-23T00:46:09.134Z,100306.50
2023-04-23T00:48:36.433Z,100307.59
2023-04-23T00:51:06.790Z,100304.03
2023-04-23T00:53:34.183Z,100311.88
2023-04-23T00:56:04.232Z,100305.47
2023-04-23T00:58:31.768Z,100301.81
2023-04-23T01:00:59.079Z,100311.84
2023-04-23T01:03:27.322Z,100309.47
2023-04-23T01:05:54.040Z,100315.72
2023-04-23T01:08:24.288Z,100312.78
2023-04-23T01:10:52.207Z,100309.13
2023-04-23T01:13:20.780Z,100305.94
2023-04-23T01:15:47.439Z,100300.63
2023-04-23T01:18:14.919Z,100311.03
2023-04-23T01:20:43.746Z,100299.22
2023-04-23T01:23:10.778Z,100302.53
2023-04-23T01:25:37.938Z,100296.84
2023-04-23T01:28:06.840Z,100299.09
2023-04-23T01:30:33.870Z,100308.44
2023-04-23T01:33:01.852Z,100297.78
2023-04-23T01:35:28.883Z,100302.53
2023-04-23T01:37:57.420Z,100303.09
2023-04-23T01:40:24.002Z,100301.69
2023-04-23T01:42:52.252Z,100298.41
2023-04-23T01:45:21.782Z,100295.06
2023-04-23T01:47:48.653Z,100295.31
2023-04-23T01:50:15.388Z,100300.16
2023-04-23T01:52:42.450Z,100303.47
2023-04-23T01:55:09.667Z,100287.03
2023-04-23T01:57:36.632Z,100303.22
2023-04-23T02:00:13.638Z,100293.91
2023-04-23T02:02:43.150Z,100283.13
2023-04-23T02:05:13.459Z,100292.34
2023-04-23T02:07:40.335Z,100283.63
2023-04-23T02:10:08.214Z,100283.63
2023-04-23T02:12:35.109Z,100286.56
2023-04-23T02:15:01.673Z,100275.56
2023-04-23T02:17:29.422Z,100283.13
2023-04-23T02:19:56.099Z,100279.00
2023-04-23T02:22:25.156Z,100288.31
2023-04-23T02:24:53.068Z,100278.81
2023-04-23T02:27:21.382Z,100295.59
2023-04-23T02:29:49.174Z,100291.53
2023-04-23T02:32:16.016Z,100290.00
2023-04-23T02:34:43.065Z,100282.53
2023-04-23T02:37:10.028Z,100285.34
2023-04-23T02:39:39.259Z,100283.47
2023-04-23T02:42:06.322Z,100301.16
2023-04-23T02:44:33.196Z,100295.13
2023-04-23T02:47:00.147Z,100306.34
2023-04-23T02:49:26.853Z,100299.88
2023-04-23T02:51:53.493Z,100300.47
2023-04-23T02:54:23.970Z,100291.97
2023-04-23T02:56:51.512Z,100295.66
2023-04-23T02:59:18.133Z,100301.72
2023-04-23T03:01:45.796Z,100297.44
2023-04-23T03:04:12.478Z,100288.38
2023-04-23T03:06:40.557Z,100295.47
2023-04-23T03:09:07.563Z,100288.31
2023-04-23T03:11:34.153Z,100288.63
2023-04-23T03:14:01.780Z,100303.53
2023-04-23T03:16:29.776Z,100295.53
2023-04-23T03:18:56.454Z,100300.03
2023-04-23T03:21:23.027Z,100300.72
2023-04-23T03:23:50.290Z,100292.59
2023-04-23T03:26:16.957Z,100296.00
2023-04-23T03:28:43.792Z,100298.28
2023-04-23T03:31:10.892Z,100290.56
2023-04-23T03:33:37.718Z,100283.25
2023-04-23T03:36:04.530Z,100306.66
2023-04-23T03:38:31.185Z,100308.06
2023-04-23T03:40:57.798Z,100296.13
2023-04-23T03:43:25.716Z,100302.16
2023-04-23T03:45:52.570Z,100302.53
2023-04-23T03:48:21.686Z,100288.94
2023-04-23T03:50:48.573Z,100293.09
2023-04-23T03:53:15.240Z,100288.81
2023-04-23T03:55:41.816Z,100294.84
2023-04-23T03:58:09.731Z,100298.16
2023-04-23T04:00:36.888Z,100295.88
2023-04-23T04:03:04.464Z,100298.03
2023-04-23T04:05:31.402Z,100293.78
2023-04-23T04:07:59.047Z,100288.34
2023-04-23T04:10:26.854Z,100291.75
2023-04-23T04:12:55.218Z,100296.00
2023-04-23T04:15:22.000Z,100297.66
2023-04-23T04:17:48.757Z,100295.66
2023-04-23T04:20:15.741Z,100295.88
2023-04-23T04:22:42.400Z,100304.28
2023-04-23T04:25:09.766Z,100302.13
2023-04-23T04:27:37.706Z,100296.84
2023-04-23T04:30:05.609Z,100303.81
2023-04-23T04:32:33.389Z,100300.03
2023-04-23T04:35:01.202Z,100299.22
2023-04-23T04:37:29.865Z,100302.53
2023-04-23T04:39:57.151Z,100301.81
2023-04-23T04:42:24.890Z,100311.38
2023-04-23T04:44:53.090Z,100300.03
2023-04-23T04:47:21.893Z,100312.56
2023-04-23T04:49:50.064Z,100303.09
2023-04-23T04:52:21.182Z,100302.63
2023-04-23T04:54:53.755Z,100302.88
2023-04-23T04:57:23.208Z,100307.94
2023-04-23T04:59:54.045Z,100307.13
2023-04-23T05:02:23.572Z,100309.28
2023-04-23T05:04:54.837Z,100314.09
2023-04-23T05:07:21.837Z,100296.72
2023-04-23T05:09:48.654Z,100307.13
2023-04-23T05:12:15.397Z,100301.69
2023-04-23T05:14:42.116Z,100310.66
2023-04-23T05:17:08.869Z,100309.47
2023-04-23T05:19:35.505Z,100307.13
2023-04-23T05:22:03.795Z,100315.66
2023-04-23T05:24:31.553Z,100300.28
2023-04-23T05:26:58.454Z,100318.69
2023-04-23T05:29:25.132Z,100318.81
2023-04-23T05:31:52.099Z,100326.28
2023-04-23T05:34:18.873Z,100322.59
2023-04-23T05:36:45.579Z,100326.38
2023-04-23T05:39:12.223Z,100317.72
2023-04-23T05:41:38.959Z,100331.69
2023-04-23T05:44:05.659Z,100333.72
2023-04-23T05:46:32.354Z,100337.47
2023-04-23T05:48:59.005Z,100345.75
2023-04-23T05:51:25.879Z,100352.50
2023-04-23T05:53:52.615Z,100362.41
2023-04-23T05:56:21.694Z,100365.59
2023-04-23T05:58:48.792Z,100364.28
2023-04-23T06:01:15.743Z,100366.72
2023-04-23T06:03:45.648Z,100378.53
2023-04-23T06:06:12.991Z,100373.44
2023-04-23T06:08:39.700Z,100380.69
2023-04-23T06:11:06.817Z,100386.31
2023-04-23T06:13:34.980Z,100385.66
2023-04-23T06:16:01.629Z,100394.09
2023-04-23T06:18:28.234Z,100393.56
2023-04-23T06:20:56.959Z,100383.31
2023-04-23T06:23:23.720Z,100404.09
2023-04-23T06:25:53.513Z,100405.00
2023-04-23T06:28:21.580Z,100415.63
2023-04-23T06:30:48.335Z,100412.31
2023-04-23T06:33:15.983Z,100406.59
2023-04-23T06:35:42.602Z,100411.03
2023-04-23T06:38:09.245Z,100428.34
2023-04-23T06:40:36.954Z,100429.00
2023-04-23T06:43:05.302Z,100429.91
2023-04-23T06:45:33.270Z,100438.50
2023-04-23T06:48:00.514Z,100438.16
2023-04-23T06:50:27.755Z,100440.72
2023-04-23T06:52:56.365Z,100442.81
2023-04-23T06:55:26.284Z,100441.53
2023-04-23T06:57:53.491Z,100443.19
2023-04-23T07:00:24.003Z,100437.00
2023-04-23T07:02:51.284Z,100443.97
2023-04-23T07:05:21.625Z,100437.66
2023-04-23T07:07:48.263Z,100445.16
2023-04-23T07:10:16.921Z,100449.19
2023-04-23T07:12:44.753Z,100453.38
2023-04-23T07:15:11.643Z,100454.03
2023-04-23T07:17:38.411Z,100448.91
2023-04-23T07:20:06.626Z,100458.91
2023-04-23T07:22:33.278Z,100456.44
2023-04-23T07:25:04.557Z,100466.06
2023-04-23T07:27:31.382Z,100462.31
2023-04-23T07:29:58.321Z,100474.81
2023-04-23T07:32:28.149Z,100472.47
2023-04-23T07:34:56.267Z,100478.13
2023-04-23T07:37:23.104Z,100467.91
2023-04-23T07:39:50.217Z,100470.16
2023-04-23T07:42:16.788Z,100466.88
2023-04-23T07:44:43.433Z,100470.16
2023-04-23T07:47:10.110Z,100474.75
2023-04-23T07:49:36.683Z,100479.91
2023-04-23T07:52:03.391Z,100476.59
2023-04-23T07:54:29.935Z,100474.66
2023-04-23T07:56:57.388Z,100487.25
2023-04-23T07:59:23.955Z,100489.78
2023-04-23T08:01:53.365Z,100489.34
2023-04-23T08:04:23.131Z,100496.66
2023-04-23T08:06:50.502Z,100489.59
2023-04-23T08:09:17.070Z,100498.44
2023-04-23T08:11:44.069Z,100497.22
2023-04-23T08:14:11.234Z,100504.03
2023-04-23T08:16:39.057Z,100492.03
2023-04-23T08:19:06.685Z,100499.78
2023-04-23T08:21:33.997Z,100513.56
2023-04-23T08:24:03.197Z,100509.88
2023-04-23T08:26:30.711Z,100512.38
2023-04-23T08:28:57.541Z,100515.06
2023-04-23T08:31:26.911Z,100509.28
2023-04-23T08:33:54.653Z,100502.63
2023-04-23T08:36:21.539Z,100507.00
2023-04-23T08:38:48.154Z,100507.56
2023-04-23T08:41:18.138Z,100504.78
2023-04-23T08:43:51.225Z,100504.59
2023-04-23T08:46:21.558Z,100509.16
2023-04-23T08:48:52.300Z,100503.13
2023-04-23T08:51:21.526Z,100513.16
2023-04-23T08:53:56.089Z,100507.56
2023-04-23T08:56:24.251Z,100506.81
2023-04-23T08:58:56.391Z,100514.34
2023-04-23T09:01:24.108Z,100515.00
2023-04-23T09:03:54.598Z,100509.34
2023-04-23T09:06:21.994Z,100513.72
2023-04-23T09:08:51.086Z,100513.31
2023-04-23T09:11:21.114Z,100517.03
2023-04-23T09:13:47.720Z,100522.63
2023-04-23T09:16:14.479Z,100510.78
2023-04-23T09:18:42.385Z,100514.88
2023-04-23T09:21:09.191Z,100518.19
2023-04-23T09:23:39.832Z,100510.84
2023-04-23T09:26:07.111Z,100518.78
2023-04-23T09:28:37.835Z,100509.50
2023-04-23T09:31:07.833Z,100524.06
2023-04-23T09:33:37.710Z,100507.44
2023-04-23T09:36:11.903Z,100510.19
2023-04-23T09:38:41.244Z,100512.66
2023-04-23T09:41:24.761Z,100519.50
2023-04-23T09:43:55.122Z,100513.41
2023-04-23T09:46:38.461Z,100497.78
2023-04-23T09:49:10.369Z,100511.44
2023-04-23T09:51:39.496Z,100502.63
2023-04-23T09:54:27.146Z,100505.41
2023-04-23T09:57:00.919Z,100500.81
2023-04-23T09:59:46.841Z,100498.47
2023-04-23T10:02:16.809Z,100501.56
2023-04-23T10:04:44.366Z,100500.34
2023-04-23T10:09:44.300Z,100506.75
2023-04-23T10:12:27.925Z,100512.22
2023-04-23T10:14:59.694Z,100508.03
2023-04-23T10:17:27.047Z,100497.31
2023-04-23T10:19:55.787Z,100499.47
2023-04-23T10:22:23.109Z,100505.69
2023-04-23T10:24:58.714Z,100505.25
2023-04-23T10:27:44.562Z,100506.47
2023-04-23T10:30:17.621Z,100505.50
2023-04-23T10:32:45.126Z,100505.69
2023-04-23T10:35:11.888Z,100492.88
2023-04-23T10:37:41.774Z,100490.84
2023-04-23T10:40:12.955Z,100493.22
2023-04-23T10:42:47.413Z,100489.38
2023-04-23T10:47:47.904Z,100501.75
2023-04-23T10:50:26.926Z,100494.53
2023-04-23T10:52:54.714Z,100493.00
2023-04-23T10:55:29.864Z,100494.63
2023-04-23T10:58:01.296Z,100495.16
2023-04-23T11:00:42.177Z,100481.56
2023-04-23T11:03:31.557Z,100488.34
2023-04-23T11:06:02.258Z,100485.88
2023-04-23T11:08:32.137Z,100488.31
2023-04-23T11:11:00.538Z,100482.69
2023-04-23T11:13:29.077Z,100481.00
2023-04-23T11:16:23.252Z,100459.88
2023-04-23T11:19:12.500Z,100470.91
2023-04-23T11:22:01.647Z,100478.16
2023-04-23T11:24:43.043Z,100479.06
2023-04-23T11:27:14.872Z,100469.84
2023-04-23T11:29:43.283Z,100471.28
2023-04-23T11:32:13.292Z,100477.59
2023-04-23T11:34:43.262Z,100469.94
2023-04-23T11:37:14.837Z,100473.00
2023-04-23T11:39:42.991Z,100473.56
2023-04-23T11:42:10.891Z,100475.47
2023-04-23T11:44:41.570Z,100479.69
2023-04-23T11:47:11.289Z,100489.91
2023-04-23T11:49:42.964Z,100476.91
2023-04-23T11:52:10.592Z,100477.84
2023-04-23T11:54:41.111Z,100474.88
2023-04-23T11:57:08.534Z,100475.00
2023-04-23T11:59:35.200Z,100477.34
2023-04-23T12:02:01.985Z,100483.16
2023-04-23T12:04:30.825Z,100480.44
2023-04-23T12:06:59.062Z,100479.53
2023-04-23T12:09:27.889Z,100481.44
2023-04-23T12:11:58.334Z,100489.03
2023-04-23T12:14:30.246Z,100487.81
2023-04-23T12:16:58.808Z,100487.91
2023-04-23T12:19:31.490Z,100483.41
2023-04-23T12:22:02.840Z,100481.78
2023-04-23T12:24:31.602Z,100475.19
2023-04-23T12:27:00.815Z,100485.22
2023-04-23T12:29:30.305Z,100487.84
2023-04-23T12:32:00.362Z,100491.69
2023-04-23T12:34:27.015Z,100491.72
2023-04-23T12:36:55.865Z,100488.19
2023-04-23T12:39:30.428Z,100496.44
2023-04-23T12:42:05.712Z,100491.00
2023-04-23T12:44:36.811Z,100483.28
2023-04-23T12:47:07.525Z,100494.00
2023-04-23T12:49:35.928Z,100490.72
2023-04-23T12:52:04.096Z,100481.63
2023-04-23T12:54:32.769Z,100481.84
2023-04-23T12:57:02.773Z,100477.78
2023-04-23T12:59:30.117Z,100475.34
2023-04-23T13:01:57.292Z,100449.78
2023-04-23T13:04:24.027Z,100465.97
2023-04-23T13:06:51.745Z,100465.63
2023-04-23T13:09:18.379Z,100456.91
2023-04-23T13:11:46.996Z,100449.81
2023-04-23T13:14:13.519Z,100456.41
2023-04-23T13:16:40.200Z,100448.69
2023-04-23T13:19:06.893Z,100442.53
2023-04-23T13:21:33.736Z,100443.56
2023-04-23T13:24:00.400Z,100447.63
2023-04-23T13:26:32.986Z,100442.53
2023-04-23T13:29:01.065Z,100444.53
2023-04-23T13:31:28.720Z,100440.31
2023-04-23T13:33:55.911Z,100430.84
2023-04-23T13:36:22.686Z,100442.16
2023-04-23T13:38:52.701Z,100437.88
2023-04-23T13:41:21.593Z,100427.81
2023-04-23T13:43:48.176Z,100429.38
2023-04-23T13:46:14.878Z,100430.53
2023-04-23T13:48:42.431Z,100418.97
2023-04-23T13:51:21.898Z,100398.06
2023-04-23T13:53:59.192Z,100420.44
2023-04-23T13:56:27.323Z,100402.94
2023-04-23T13:59:17.472Z,100408.50
2023-04-23T14:01:52.228Z,100411.66
2023-04-23T14:04:24.113Z,100412.41
2023-04-23T14:06:58.702Z,100418.53
2023-04-23T14:09:25.549Z,100414.69
2023-04-23T14:11:56.405Z,100410.66
2023-04-23T14:14:23.002Z,100412.56
2023-04-23T14:16:52.347Z,100403.47
2023-04-23T14:19:24.116Z,100399.94
2023-04-23T14:21:52.898Z,100405.84
2023-04-23T14:24:27.991Z,100407.47
2023-04-23T14:26:54.670Z,100402.19
2023-04-23T14:29:30.391Z,100406.59
2023-04-23T14:31:57.112Z,100403.94
2023-04-23T14:34:28.147Z,100402.66
2023-04-23T14:36:54.979Z,100401.69
2023-04-23T14:39:22.838Z,100406.69
2023-04-23T14:41:51.888Z,100395.41
2023-04-23T14:44:21.637Z,100386.63
2023-04-23T14:46:52.294Z,100387.75
2023-04-23T14:49:23.721Z,100381.31
2023-04-23T14:51:59.472Z,100386.19
2023-04-23T14:54:26.063Z,100382.34
2023-04-23T14:56:55.599Z,100388.97
2023-04-23T14:59:23.360Z,100381.06
2023-04-23T15:01:50.480Z,100381.69
2023-04-23T15:04:17.290Z,100380.53
2023-04-23T15:06:44.129Z,100382.03
2023-04-23T15:09:10.784Z,100382.16
2023-04-23T15:11:38.917Z,100376.44
2023-04-23T15:14:18.252Z,100377.63
2023-04-23T15:16:48.886Z,100372.81
2023-04-23T15:19:18.287Z,100372.75
2023-04-23T15:21:45.744Z,100351.31
2023-04-23T15:24:15.360Z,100352.25
2023-04-23T15:26:42.938Z,100350.09
2023-04-23T15:29:10.336Z,100350.63
2023-04-23T15:31:37.945Z,100353.16
2023-04-23T15:34:07.309Z,100342.94
2023-04-23T15:36:35.739Z,100328.59
2023-04-23T15:39:02.508Z,100335.19
2023-04-23T15:41:29.218Z,100327.19
2023-04-23T15:43:56.636Z,100333.78
2023-04-23T15:46:23.398Z,100333.94
2023-04-23T15:48:50.098Z,100336.09
2023-04-23T15:51:17.008Z,100331.72
2023-04-23T15:53:43.933Z,100318.22
2023-04-23T15:56:10.655Z,100313.31
2023-04-23T15:58:38.311Z,100311.94
2023-04-23T16:01:07.225Z,100312.19
2023-04-23T16:03:34.481Z,100311.94
2023-04-23T16:06:01.458Z,100304.78
2023-04-23T16:08:28.228Z,100314.94
2023-04-23T16:10:57.090Z,100303.91
2023-04-23T16:13:24.741Z,100303.75
2023-04-23T16:15:54.234Z,100303.78
2023-04-23T16:18:23.717Z,100304.84
2023-04-23T16:20:53.654Z,100293.34
2023-04-23T16:23:23.044Z,100296.63
2023-04-23T16:25:52.108Z,100299.66
2023-04-23T16:28:18.790Z,100298.00
2023-04-23T16:30:46.964Z,100299.66
2023-04-23T16:33:13.839Z,100306.28
2023-04-23T16:35:40.554Z,100301.06
2023-04-23T16:38:11.066Z,100305.19
2023-04-23T16:40:39.879Z,100299.34
2023-04-23T16:43:06.858Z,100294.91
2023-04-23T16:45:34.977Z,100301.97
2023-04-23T16:48:01.538Z,100296.84
2023-04-23T16:50:28.501Z,100283.97
2023-04-23T16:52:56.637Z,100277.38
2023-04-23T16:55:23.284Z,100273.25
2023-04-23T16:57:53.713Z,100267.47
2023-04-23T17:00:23.849Z,100275.66
2023-04-23T17:02:53.813Z,100244.66
2023-04-23T17:05:25.079Z,100261.84
2023-04-23T17:07:54.750Z,100256.81
2023-04-23T17:10:21.911Z,100256.16
2023-04-23T17:12:51.123Z,100246.16
2023-04-23T17:15:18.906Z,100238.50
2023-04-23T17:17:45.698Z,100237.34
2023-04-23T17:20:12.372Z,100227.41
2023-04-23T17:22:40.185Z,100224.41
2023-04-23T17:25:08.589Z,100205.97
2023-04-23T17:27:35.242Z,100210.88
2023-04-23T17:30:02.081Z,100204.47
2023-04-23T17:32:28.902Z,100230.31
2023-04-23T17:35:06.458Z,100237.91
2023-04-23T17:37:36.115Z,100254.78
2023-04-23T17:40:03.264Z,100248.25
2023-04-23T17:42:30.473Z,100248.72
2023-04-23T17:44:57.213Z,100263.41
2023-04-23T17:47:24.979Z,100245.63
2023-04-23T17:49:54.641Z,100262.47
2023-04-23T17:52:22.128Z,100263.13
2023-04-23T17:54:48.928Z,100272.75
2023-04-23T17:57:15.818Z,100273.13
2023-04-23T17:59:42.784Z,100275.63
2023-04-23T18:02:09.932Z,100271.06
2023-04-23T18:04:37.822Z,100265.16
2023-04-23T18:07:04.461Z,100271.25
2023-04-23T18:09:31.086Z,100274.41
2023-04-23T18:11:59.137Z,100271.50
2023-04-23T18:14:25.969Z,100280.41
2023-04-23T18:16:53.824Z,100275.47
2023-04-23T18:19:24.394Z,100275.97
2023-04-23T18:21:54.988Z,100278.13
2023-04-23T18:24:24.667Z,100282.47
2023-04-23T18:26:52.212Z,100279.41
2023-04-23T18:29:18.869Z,100277.94
2023-04-23T18:31:45.681Z,100268.50
2023-04-23T18:34:18.563Z,100270.91
2023-04-23T18:36:56.924Z,100285.25
2023-04-23T18:39:23.655Z,100283.97
2023-04-23T18:41:53.606Z,100289.81
2023-04-23T18:44:24.423Z,100283.13
2023-04-23T18:46:52.341Z,100276.41
2023-04-23T18:49:40.861Z,100282.00
2023-04-23T18:52:07.737Z,100271.72
2023-04-23T18:54:34.489Z,100276.34
2023-04-23T18:57:02.295Z,100267.09
2023-04-23T18:59:28.977Z,100276.59
2023-04-23T19:01:56.793Z,100269.50
2023-04-23T19:04:23.811Z,100278.91
2023-04-23T19:06:53.012Z,100272.09
2023-04-23T19:09:22.047Z,100283.09
2023-04-23T19:11:48.920Z,100289.97
2023-04-23T19:14:16.237Z,100277.22
2023-04-23T19:16:42.891Z,100278.41
2023-04-23T19:19:09.667Z,100275.47
2023-04-23T19:21:36.667Z,100270.84
2023-04-23T19:24:03.682Z,100275.47
2023-04-23T19:26:30.341Z,100270.84
2023-04-23T19:28:58.007Z,100274.03
2023-04-23T19:31:24.908Z,100266.72
2023-04-23T19:33:51.757Z,100279.34
2023-04-23T19:36:18.464Z,100261.47
2023-04-23T19:38:45.885Z,100264.56
2023-04-23T19:41:12.585Z,100265.50
2023-04-23T19:43:40.420Z,100268.06
2023-04-23T19:46:07.219Z,100271.22
2023-04-23T19:48:33.856Z,100261.44
2023-04-23T19:51:00.588Z,100257.44
2023-04-23T19:53:27.742Z,100259.78
2023-04-23T19:55:54.490Z,100252.56
2023-04-23T19:58:22.376Z,100240.88
2023-04-23T20:00:49.601Z,100241.75
2023-04-23T20:03:16.382Z,100246.75
2023-04-23T20:05:46.108Z,100246.56
2023-04-23T20:08:15.474Z,100239.50
2023-04-23T20:10:42.950Z,100234.25
2023-04-23T20:13:09.674Z,100221.31
2023-04-23T20:15:36.753Z,100238.59
2023-04-23T20:18:03.912Z,100245.91
2023-04-23T20:20:30.610Z,100240.31
2023-04-23T20:22:57.327Z,100217.66
2023-04-23T20:25:25.730Z,100235.44
2023-04-23T20:27:53.045Z,100226.09
2023-04-23T20:30:20.235Z,100227.56
2023-04-23T20:32:46.947Z,100231.34
2023-04-23T20:35:13.814Z,100227.47
2023-04-23T20:37:40.882Z,100221.56
2023-04-23T20:40:08.290Z,100218.53
2023-04-23T20:42:39.112Z,100212.16
2023-04-23T20:45:08.096Z,100216.97
2023-04-23T20:47:34.987Z,100207.53
2023-04-23T20:50:01.625Z,100213.81
2023-04-23T20:52:29.015Z,100210.03
2023-04-23T20:54:55.675Z,100193.03
2023-04-23T20:57:22.385Z,100180.84
2023-04-23T20:59:48.994Z,100191.50
2023-04-23T21:02:16.099Z,100187.44
2023-04-23T21:04:43.321Z,100184.72
2023-04-23T21:07:11.190Z,100182.13
2023-04-23T21:09:37.820Z,100177.09
2023-04-23T21:12:04.990Z,100184.78
2023-04-23T21:14:32.979Z,100185.22
2023-04-23T21:16:59.616Z,100182.63
2023-04-23T21:19:26.149Z,100175.97
2023-04-23T21:21:52.949Z,100165.19
2023-04-23T21:24:21.908Z,100169.81
2023-04-23T21:26:48.866Z,100174.28
2023-04-23T21:29:15.498Z,100156.88
2023-04-23T21:31:53.411Z,100153.16
2023-04-23T21:34:23.109Z,100147.00
2023-04-23T21:36:50.332Z,100154.88
2023-04-23T21:39:17.050Z,100157.28
2023-04-23T21:41:44.881Z,100152.50
2023-04-23T21:44:11.535Z,100139.16
2023-04-23T21:46:38.389Z,100151.16
2023-04-23T21:49:05.085Z,100138.47
2023-04-23T21:51:37.023Z,100132.00
2023-04-23T21:54:05.641Z,100142.66
2023-04-23T21:56:32.453Z,100136.19
2023-04-23T21:58:59.058Z,100131.81
2023-04-23T22:01:26.741Z,100127.13
2023-04-23T22:03:53.535Z,100126.38
2023-04-23T22:06:23.650Z,100121.44
2023-04-23T22:08:54.603Z,100129.38
2023-04-23T22:11:24.240Z,100127.56
2023-04-23T22:13:51.419Z,100125.19
2023-04-23T22:16:28.085Z,100126.97
2023-04-23T22:18:56.955Z,100121.47
2023-04-23T22:21:23.779Z,100113.03
2023-04-23T22:23:53.413Z,100107.78
2023-04-23T22:26:20.758Z,100098.84
2023-04-23T22:28:47.587Z,100105.41
2023-04-23T22:31:14.168Z,100107.34
2023-04-23T22:33:40.821Z,100094.31
2023-04-23T22:36:07.548Z,100090.34
2023-04-23T22:38:34.848Z,100082.72
2023-04-23T22:41:02.135Z,100091.38
2023-04-23T22:43:28.849Z,100087.75
2023-04-23T22:45:55.640Z,100088.19
2023-04-23T22:48:23.912Z,100083.69
2023-04-23T22:50:51.573Z,100084.41
2023-04-23T22:53:21.777Z,100076.91
2023-04-23T22:55:49.761Z,100063.50
2023-04-23T22:58:16.525Z,100065.72
2023-04-23T23:00:43.216Z,100054.19
2023-04-23T23:03:12.069Z,100062.09
2023-04-23T23:05:38.783Z,100053.72
2023-04-23T23:08:06.788Z,100063.44
2023-04-23T23:10:33.672Z,100056.97
2023-04-23T23:13:01.359Z,100058.88
2023-04-23T23:15:27.941Z,100057.50
2023-04-23T23:17:54.653Z,100055.94
2023-04-23T23:20:21.680Z,100049.38
2023-04-23T23:22:48.621Z,100052.91
2023-04-23T23:25:16.153Z,100057.00
2023-04-23T23:27:43.893Z,100046.16
2023-04-23T23:30:10.866Z,100049.69
2023-04-23T23:32:37.715Z,100034.00
2023-04-23T23:35:04.764Z,100038.03
2023-04-23T23:37:33.423Z,100035.06
2023-04-23T23:39:59.986Z,100032.13
2023-04-23T23:42:27.655Z,100024.81
2023-04-23T23:44:54.301Z,100016.06
2023-04-23T23:47:21.331Z,100015.25
2023-04-23T23:49:48.074Z,100003.25
2023-04-23T23:52:16.757Z,99994.63
2023-04-23T23:54:47.447Z,99997.56
2023-04-23T23:57:14.143Z,99987.06
2023-04-23T23:59:41.318Z,99991.31
